Sobolevo, Russia
Current Conditions -  °F | °C
As of 11:30 AM on Saturday 20 Dec 2014 (Local Time) from UHPP Reporting Station
Clear Clear  
Wind Chill: -13°   Ceiling: Unl
Heat Index:   Visibility: 6mi
Dew Point: -13°   Wind: 11mph
Humidity: 47%   Direction: 360°N
Pressure: 29.77"   Gusts: NA
Location:  54.27°N, 155.92°E
Report Text: UHPP 192330Z 36005MPS 9999 NSC M16/M25 Q1008 NOSIG RMKQFE753/1004 SC070
Loading
Personal Weather Stations






























Interactive Weather Map New forecast layout! Learn more

10-Day Weather Forecast

Advertisements
Track Severe Weather on mobile